Time;durP1;ratioP1;P1;durP2;ratioP2;P2;SDS_P1;SDS_P2;PMS_P1;PMS_P2;Temp;Humidity;BMP_temperature;BMP_pressure;BME280_temperature;BME280_humidity;BME280_pressure;Samples;Min_cycle;Max_cycle;Signal;HPM_P1;HPM_P2
2022/03/24 00:00:20;;;;;;;33.75;21.42;;;9.10;99.90;;;;;;5030444;28;20163;-47
2022/03/24 00:02:46;;;;;;;34.00;21.23;;;9.00;99.90;;;;;;5033827;28;20650;-47
2022/03/24 00:05:12;;;;;;;35.72;20.08;;;9.00;99.90;;;;;;5035595;28;20305;-48
2022/03/24 00:07:38;;;;;;;38.42;21.25;;;8.80;99.90;;;;;;5035980;28;20175;-47
2022/03/24 00:10:05;;;;;;;38.00;20.17;;;8.90;99.90;;;;;;5035615;28;20190;-47
2022/03/24 00:12:31;;;;;;;46.45;21.60;;;8.90;99.90;;;;;;5035556;28;20279;-48
2022/03/24 00:14:56;;;;;;;39.70;21.52;;;8.50;99.90;;;;;;5035481;28;20210;-47
2022/03/24 00:17:22;;;;;;;43.90;20.58;;;8.70;99.90;;;;;;5035786;28;20167;-47
2022/03/24 00:19:48;;;;;;;44.78;22.73;;;8.80;99.90;;;;;;5035481;28;20590;-47
2022/03/24 00:22:13;;;;;;;38.40;21.20;;;8.80;99.90;;;;;;5035692;28;20178;-48
2022/03/24 00:24:40;;;;;;;48.15;21.75;;;8.80;99.90;;;;;;5035357;28;20163;-48
2022/03/24 00:27:05;;;;;;;47.97;21.85;;;8.80;99.90;;;;;;5034142;28;20171;-47
2022/03/24 00:29:31;;;;;;;45.15;21.70;;;8.80;99.90;;;;;;5035347;28;20607;-47
2022/03/24 00:31:56;;;;;;;35.83;20.67;;;8.70;99.90;;;;;;5035180;28;20210;-47
2022/03/24 00:34:22;;;;;;;47.10;20.90;;;8.70;99.90;;;;;;5035593;28;20203;-47
2022/03/24 00:36:48;;;;;;;38.88;21.75;;;8.70;99.90;;;;;;5035484;28;20182;-48
2022/03/24 00:39:13;;;;;;;41.80;19.48;;;8.70;99.90;;;;;;5035121;28;20171;-47
2022/03/24 00:41:40;;;;;;;46.30;22.20;;;8.60;99.90;;;;;;5035224;28;20171;-47
2022/03/24 00:44:07;;;;;;;41.50;21.25;;;8.70;99.90;;;;;;5035318;28;20175;-48
2022/03/24 00:46:33;;;;;;;51.88;21.88;;;8.60;99.90;;;;;;5035100;28;20226;-48
2022/03/24 00:48:59;;;;;;;43.28;21.98;;;8.40;99.90;;;;;;5034916;28;20531;-48
2022/03/24 00:51:24;;;;;;;44.85;21.42;;;8.50;99.90;;;;;;5035437;28;20317;-48
2022/03/24 00:53:50;;;;;;;45.03;21.05;;;8.50;99.90;;;;;;5034850;28;20623;-47
2022/03/24 00:56:17;;;;;;;50.53;22.08;;;8.50;99.90;;;;;;5034829;28;20167;-48
2022/03/24 00:58:43;;;;;;;37.90;20.77;;;8.40;99.90;;;;;;5034777;28;20167;-48
2022/03/24 01:01:12;;;;;;;40.45;21.45;;;8.50;99.90;;;;;;5034794;28;20178;-49
2022/03/24 01:03:39;;;;;;;38.60;20.67;;;8.40;99.90;;;;;;5034957;28;20175;-48
2022/03/24 01:06:07;;;;;;;41.15;21.23;;;8.40;99.90;;;;;;5034647;28;20168;-48
2022/03/24 01:08:32;;;;;;;46.20;21.95;;;8.30;99.90;;;;;;5034836;28;20245;-48
2022/03/24 01:10:58;;;;;;;44.97;21.23;;;8.30;99.90;;;;;;5034427;28;20695;-48
2022/03/24 01:13:23;;;;;;;52.25;21.63;;;8.30;99.90;;;;;;5034672;28;20175;-47
2022/03/24 01:15:50;;;;;;;38.78;21.40;;;8.30;99.90;;;;;;5033198;28;20221;-47
2022/03/24 01:18:18;;;;;;;44.88;22.30;;;8.30;99.90;;;;;;5034726;28;20178;-48
2022/03/24 01:20:45;;;;;;;41.85;18.88;;;8.20;99.90;;;;;;5034407;28;20654;-48
2022/03/24 01:23:12;;;;;;;37.78;19.50;;;8.20;99.90;;;;;;5034581;28;20508;-48
2022/03/24 01:25:38;;;;;;;37.67;20.15;;;8.10;99.90;;;;;;5034497;28;20182;-48
2022/03/24 01:28:03;;;;;;;43.00;20.52;;;8.10;99.90;;;;;;5034272;28;20250;-48
2022/03/24 01:30:29;;;;;;;32.33;19.73;;;8.10;99.90;;;;;;5034162;28;20257;-48
2022/03/24 01:32:54;;;;;;;36.33;19.63;;;8.00;99.90;;;;;;5034644;28;20171;-47
2022/03/24 01:35:20;;;;;;;33.50;19.85;;;8.00;99.90;;;;;;5034275;28;20168;-48
2022/03/24 01:37:45;;;;;;;35.13;19.92;;;8.10;99.90;;;;;;5034074;28;20179;-47
2022/03/24 01:40:12;;;;;;;40.10;21.70;;;8.00;99.90;;;;;;5034094;28;20170;-48
2022/03/24 01:42:39;;;;;;;35.47;21.40;;;8.00;99.90;;;;;;5034011;28;20627;-47
2022/03/24 01:45:07;;;;;;;36.10;20.83;;;8.00;99.90;;;;;;5033996;28;20178;-47
2022/03/24 01:47:34;;;;;;;37.50;20.75;;;7.90;99.90;;;;;;5033773;28;20298;-47
2022/03/24 01:50:00;;;;;;;33.10;20.50;;;7.90;99.90;;;;;;5033966;28;20241;-48
2022/03/24 01:52:28;;;;;;;38.28;22.67;;;7.90;99.90;;;;;;5033826;28;20615;-48
2022/03/24 01:54:56;;;;;;;43.08;21.95;;;7.90;99.90;;;;;;5034247;28;20194;-48
2022/03/24 01:57:22;;;;;;;45.33;21.85;;;7.80;99.90;;;;;;5033919;28;20550;-48
2022/03/24 01:59:51;;;;;;;42.53;20.92;;;7.80;99.90;;;;;;5033628;28;20530;-48
2022/03/24 02:02:17;;;;;;;33.47;19.92;;;7.80;99.90;;;;;;5033478;28;20328;-54
2022/03/24 02:04:43;;;;;;;46.42;20.77;;;7.80;99.90;;;;;;5033532;28;20163;-48
2022/03/24 02:07:10;;;;;;;41.10;22.13;;;7.60;99.90;;;;;;5033405;28;20628;-48
2022/03/24 02:09:36;;;;;;;29.83;18.25;;;7.70;99.90;;;;;;5033422;28;20164;-47
2022/03/24 02:12:09;;;;;;;45.20;20.65;;;7.70;99.90;;;;;;5033210;28;20218;-48
2022/03/24 02:14:35;;;;;;;47.78;21.55;;;7.50;99.90;;;;;;5033394;28;20172;-47
2022/03/24 02:17:01;;;;;;;50.15;21.48;;;7.50;99.90;;;;;;5033294;28;20164;-47
2022/03/24 02:19:28;;;;;;;38.90;20.80;;;7.50;99.90;;;;;;5033246;28;20186;-48
2022/03/24 02:21:55;;;;;;;43.67;22.20;;;7.60;99.90;;;;;;5033817;28;20175;-48
2022/03/24 02:24:24;;;;;;;46.55;21.70;;;7.70;99.90;;;;;;5033071;28;20242;-48
2022/03/24 02:26:50;;;;;;;34.60;20.40;;;7.70;99.90;;;;;;5032833;28;20179;-48
2022/03/24 02:29:17;;;;;;;37.92;20.70;;;7.70;99.90;;;;;;5033078;28;20171;-48
2022/03/24 02:31:49;;;;;;;39.58;20.85;;;7.70;99.90;;;;;;5032888;28;20202;-47
2022/03/24 02:34:40;;;;;;;36.58;21.55;;;7.70;99.90;;;;;;5033008;28;20171;-49
2022/03/24 02:37:09;;;;;;;34.85;20.13;;;7.70;99.90;;;;;;5033222;28;20178;-48
2022/03/24 02:39:43;;;;;;;37.80;20.80;;;7.60;99.90;;;;;;5032939;28;20163;-48
2022/03/24 02:42:15;;;;;;;40.72;20.23;;;7.60;99.90;;;;;;5032786;28;20175;-48
2022/03/24 02:44:45;;;;;;;34.05;20.65;;;7.50;99.90;;;;;;5032814;28;20167;-48
2022/03/24 02:47:12;;;;;;;38.60;21.92;;;7.40;99.90;;;;;;5032728;28;20222;-48
2022/03/24 02:49:38;;;;;;;40.70;22.73;;;7.20;99.90;;;;;;5032696;28;20578;-47
2022/03/24 02:52:06;;;;;;;38.80;21.25;;;7.10;99.90;;;;;;5032562;28;20203;-47
2022/03/24 02:54:32;;;;;;;36.13;21.38;;;6.90;99.90;;;;;;5032846;28;20254;-47
2022/03/24 02:56:58;;;;;;;38.17;20.75;;;6.80;99.90;;;;;;5032799;28;20179;-48
2022/03/24 02:59:24;;;;;;;40.92;21.38;;;6.70;99.90;;;;;;5032848;28;20216;-48
2022/03/24 03:01:59;;;;;;;33.00;20.70;;;6.90;99.90;;;;;;5032516;28;20175;-47
2022/03/24 03:04:25;;;;;;;42.47;21.95;;;7.00;99.90;;;;;;5033412;28;20555;-47
2022/03/24 03:06:52;;;;;;;37.45;21.20;;;7.00;99.90;;;;;;5032697;28;20167;-47
2022/03/24 03:09:18;;;;;;;38.88;21.63;;;7.00;99.90;;;;;;5032575;28;20178;-48
2022/03/24 03:11:45;;;;;;;40.55;21.45;;;6.90;99.90;;;;;;5032565;28;20211;-48
2022/03/24 03:14:12;;;;;;;38.85;20.23;;;7.00;99.90;;;;;;5032368;28;20203;-48
2022/03/24 03:16:39;;;;;;;33.83;19.83;;;7.00;99.90;;;;;;5032523;28;20178;-48
2022/03/24 03:19:08;;;;;;;33.50;20.52;;;6.90;99.90;;;;;;5032391;28;20167;-47
2022/03/24 03:21:33;;;;;;;37.45;22.40;;;6.80;99.90;;;;;;5032457;28;20175;-48
2022/03/24 03:23:59;;;;;;;35.92;21.08;;;6.90;99.90;;;;;;5032127;28;20262;-48
2022/03/24 03:26:24;;;;;;;35.35;20.48;;;6.80;99.90;;;;;;5031196;28;20187;-48
2022/03/24 03:28:53;;;;;;;36.03;20.20;;;6.90;99.90;;;;;;5032064;28;20171;-48
2022/03/24 03:31:22;;;;;;;38.08;21.23;;;7.00;99.90;;;;;;5032013;28;20199;-48
2022/03/24 03:33:50;;;;;;;39.63;21.88;;;7.00;99.90;;;;;;5032243;28;20191;-48
2022/03/24 03:36:16;;;;;;;40.00;21.35;;;7.00;99.90;;;;;;5032194;28;20253;-48
2022/03/24 03:38:41;;;;;;;34.58;19.60;;;7.10;99.90;;;;;;5030723;28;20263;-48
2022/03/24 03:41:07;;;;;;;37.03;19.35;;;7.00;99.90;;;;;;5032048;28;20210;-48
2022/03/24 03:43:32;;;;;;;39.65;20.45;;;7.00;99.90;;;;;;5031967;28;20174;-48
2022/03/24 03:45:58;;;;;;;31.98;19.80;;;7.10;99.90;;;;;;5031724;28;20246;-48
2022/03/24 03:48:25;;;;;;;35.17;19.95;;;7.10;99.90;;;;;;5032221;28;20167;-47
2022/03/24 03:50:51;;;;;;;37.92;21.10;;;7.10;99.90;;;;;;5032576;28;20225;-48
2022/03/24 03:53:17;;;;;;;40.13;20.13;;;7.10;99.90;;;;;;5031832;28;20627;-48
2022/03/24 03:55:42;;;;;;;41.30;20.05;;;7.10;99.90;;;;;;5031986;28;20187;-47
2022/03/24 03:58:10;;;;;;;38.55;21.05;;;7.10;99.90;;;;;;5031799;28;20166;-47
2022/03/24 04:03:28;;;;;;;34.03;20.65;;;7.10;99.90;;;;;;5032418;28;20538;-47
2022/03/24 04:05:55;;;;;;;41.50;18.95;;;7.10;99.90;;;;;;5032273;28;20172;-47
2022/03/24 04:08:21;;;;;;;38.53;18.20;;;7.00;99.90;;;;;;5032272;28;20195;-47
2022/03/24 04:10:52;;;;;;;37.55;18.90;;;7.00;99.90;;;;;;5031905;28;20207;-47
2022/03/24 04:13:18;;;;;;;32.10;18.73;;;6.90;99.90;;;;;;5031942;28;20190;-48
2022/03/24 04:15:45;;;;;;;36.15;18.50;;;6.80;99.90;;;;;;5031641;28;20658;-48
2022/03/24 04:18:11;;;;;;;35.22;18.10;;;6.70;99.90;;;;;;5031875;28;20186;-47
2022/03/24 04:20:38;;;;;;;32.38;18.42;;;6.80;99.90;;;;;;5031663;28;20599;-47
2022/03/24 04:23:05;;;;;;;37.05;19.02;;;6.60;99.90;;;;;;5031819;28;20182;-48
2022/03/24 04:25:32;;;;;;;31.38;17.90;;;6.60;99.90;;;;;;5031839;28;20175;-47
2022/03/24 04:27:59;;;;;;;38.80;18.88;;;6.70;99.90;;;;;;5031534;28;20163;-48
2022/03/24 04:30:26;;;;;;;45.10;18.75;;;6.60;99.90;;;;;;5031747;28;20574;-48
2022/03/24 04:32:52;;;;;;;40.75;19.27;;;6.50;99.90;;;;;;5032140;28;20532;-47
2022/03/24 04:35:18;;;;;;;37.88;19.00;;;6.50;99.90;;;;;;5031510;28;20174;-47
2022/03/24 04:37:44;;;;;;;41.97;19.05;;;6.40;99.90;;;;;;5031526;28;20222;-48
2022/03/24 04:40:11;;;;;;;47.92;19.67;;;6.30;99.90;;;;;;5031511;28;20168;-48
2022/03/24 04:42:40;;;;;;;44.03;18.23;;;6.40;99.90;;;;;;5031749;28;20527;-48
2022/03/24 04:45:06;;;;;;;43.33;20.15;;;6.30;99.90;;;;;;5031729;28;20541;-48
2022/03/24 04:47:32;;;;;;;39.75;19.30;;;6.30;99.90;;;;;;5031250;28;20297;-48
2022/03/24 04:49:58;;;;;;;37.20;19.48;;;6.30;99.90;;;;;;5034995;28;20245;-48
2022/03/24 04:52:24;;;;;;;41.78;19.58;;;6.30;99.90;;;;;;5035172;28;20267;-47
2022/03/24 04:54:50;;;;;;;42.05;17.73;;;6.20;99.90;;;;;;5034872;28;20250;-47
2022/03/24 04:57:15;;;;;;;36.55;18.38;;;6.20;99.90;;;;;;5034762;28;20167;-47
2022/03/24 04:59:42;;;;;;;40.17;17.67;;;6.20;99.90;;;;;;5034847;28;20183;-47
2022/03/24 05:02:09;;;;;;;42.22;18.67;;;6.10;99.90;;;;;;5033782;28;20179;-48
2022/03/24 05:04:35;;;;;;;44.33;18.75;;;6.00;99.90;;;;;;5035019;28;20178;-48
2022/03/24 05:07:01;;;;;;;39.38;19.15;;;6.00;99.90;;;;;;5034689;28;20163;-48
2022/03/24 05:09:26;;;;;;;47.72;19.15;;;6.00;99.90;;;;;;5034413;28;20190;-48
2022/03/24 05:11:52;;;;;;;43.40;18.85;;;6.00;99.90;;;;;;5034619;28;20230;-47
2022/03/24 05:14:17;;;;;;;36.47;17.77;;;6.10;99.90;;;;;;5034483;28;20168;-48
2022/03/24 05:16:43;;;;;;;48.08;18.75;;;6.10;99.90;;;;;;5034450;28;20199;-47
2022/03/24 05:19:08;;;;;;;40.38;19.95;;;6.10;99.90;;;;;;5034485;28;20186;-48
2022/03/24 05:21:34;;;;;;;44.83;19.83;;;6.10;99.90;;;;;;5034406;28;20172;-48
2022/03/24 05:24:00;;;;;;;41.92;19.55;;;6.10;99.90;;;;;;5034310;28;20163;-48
2022/03/24 05:26:26;;;;;;;37.42;19.35;;;6.20;99.90;;;;;;5034435;28;20502;-48
2022/03/24 05:28:53;;;;;;;50.65;20.88;;;6.20;99.90;;;;;;5034483;28;20172;-49
2022/03/24 05:31:20;;;;;;;43.30;21.98;;;6.20;99.90;;;;;;5034380;28;20211;-49
2022/03/24 05:33:46;;;;;;;45.35;20.15;;;6.10;99.90;;;;;;5034408;28;20171;-49
2022/03/24 05:36:12;;;;;;;53.05;21.00;;;6.00;99.90;;;;;;5034124;28;20168;-49
2022/03/24 05:38:38;;;;;;;50.25;19.65;;;6.00;99.90;;;;;;5034357;28;20167;-49
2022/03/24 05:41:04;;;;;;;55.35;20.63;;;5.90;99.90;;;;;;5034036;28;20188;-49
2022/03/24 05:43:31;;;;;;;70.05;22.13;;;5.90;99.90;;;;;;5034015;28;20244;-48
2022/03/24 05:45:57;;;;;;;65.75;21.83;;;5.80;99.90;;;;;;5033848;28;20219;-48
2022/03/24 05:48:23;;;;;;;57.40;22.30;;;5.80;99.90;;;;;;5034055;28;20552;-48
2022/03/24 05:50:48;;;;;;;55.80;21.85;;;5.90;99.90;;;;;;5033603;28;20571;-49
2022/03/24 05:53:14;;;;;;;61.47;23.73;;;5.80;99.90;;;;;;5033709;28;20172;-48
2022/03/24 05:55:41;;;;;;;63.55;23.05;;;5.90;99.90;;;;;;5033504;28;20168;-49
2022/03/24 05:58:07;;;;;;;45.67;21.40;;;6.00;99.90;;;;;;5033826;28;20171;-49
2022/03/24 06:00:38;;;;;;;46.60;21.55;;;5.90;99.90;;;;;;5032503;28;20641;-48
2022/03/24 06:03:04;;;;;;;54.25;23.45;;;5.90;99.90;;;;;;5033579;28;20627;-48
2022/03/24 06:05:31;;;;;;;55.55;21.85;;;6.00;99.90;;;;;;5033591;28;20171;-49
2022/03/24 06:08:00;;;;;;;49.97;22.35;;;6.10;99.90;;;;;;5033606;28;20167;-46
2022/03/24 06:10:25;;;;;;;47.28;21.00;;;6.10;99.90;;;;;;5032094;28;20206;-48
2022/03/24 06:12:51;;;;;;;48.78;20.23;;;6.20;99.90;;;;;;5031575;28;20179;-47
2022/03/24 06:15:17;;;;;;;49.75;23.70;;;6.30;99.90;;;;;;5032112;28;20631;-48
2022/03/24 06:17:43;;;;;;;51.72;20.77;;;6.40;99.90;;;;;;5031765;28;20635;-52
2022/03/24 06:20:10;;;;;;;44.22;20.55;;;6.40;99.90;;;;;;5032148;28;20171;-45
2022/03/24 06:22:48;;;;;;;46.40;20.25;;;6.50;99.90;;;;;;5031892;28;20254;-45
2022/03/24 06:25:13;;;;;;;50.78;24.27;;;6.60;99.90;;;;;;5031905;28;20155;-46
2022/03/24 06:27:39;;;;;;;48.05;23.80;;;6.60;99.90;;;;;;5031774;28;20646;-45
2022/03/24 06:30:05;;;;;;;45.70;20.83;;;6.70;99.90;;;;;;5031663;28;20174;-48
2022/03/24 06:32:31;;;;;;;42.08;22.20;;;6.80;99.90;;;;;;5031565;28;20720;-46
2022/03/24 06:34:57;;;;;;;44.03;21.58;;;6.80;99.90;;;;;;5031792;28;20228;-46
2022/03/24 06:37:22;;;;;;;39.75;21.58;;;6.90;99.90;;;;;;5031991;28;20174;-47
2022/03/24 06:39:48;;;;;;;65.13;23.38;;;7.00;99.90;;;;;;5031822;28;20657;-47
2022/03/24 06:42:13;;;;;;;43.63;20.98;;;7.10;99.90;;;;;;5031482;28;20167;-47
2022/03/24 06:44:39;;;;;;;45.65;23.38;;;7.20;99.90;;;;;;5031422;28;20182;-46
2022/03/24 06:47:05;;;;;;;47.10;24.27;;;7.40;99.90;;;;;;5031323;28;20223;-47
2022/03/24 06:49:31;;;;;;;45.85;24.13;;;7.50;99.90;;;;;;5031632;28;20512;-46
2022/03/24 06:51:56;;;;;;;52.63;23.65;;;7.60;99.90;;;;;;5031458;28;20257;-46
2022/03/24 06:54:22;;;;;;;47.92;24.30;;;7.60;99.90;;;;;;5031489;28;20167;-48
2022/03/24 06:56:49;;;;;;;38.33;22.00;;;7.80;99.90;;;;;;5031144;28;20536;-48
2022/03/24 06:59:17;;;;;;;47.13;23.42;;;7.80;99.90;;;;;;5031467;28;20167;-44
2022/03/24 07:01:42;;;;;;;40.63;23.48;;;7.90;99.90;;;;;;5031145;28;20673;-48
2022/03/24 07:04:08;;;;;;;43.78;23.30;;;8.00;99.90;;;;;;5031073;28;20191;-48
2022/03/24 07:06:34;;;;;;;46.97;22.55;;;8.10;99.90;;;;;;5029903;28;20521;-47
2022/03/24 07:08:59;;;;;;;37.83;21.83;;;8.20;99.90;;;;;;5031148;28;20704;-49
2022/03/24 07:11:25;;;;;;;42.78;23.88;;;8.30;99.90;;;;;;5030944;28;20619;-48
2022/03/24 07:13:50;;;;;;;43.53;23.27;;;8.50;99.90;;;;;;5031246;28;20591;-45
2022/03/24 07:16:16;;;;;;;42.80;23.55;;;8.60;99.90;;;;;;5030917;28;20183;-48
2022/03/24 07:18:41;;;;;;;40.35;22.50;;;8.60;99.90;;;;;;5030851;28;20166;-44
2022/03/24 07:21:07;;;;;;;38.30;24.38;;;8.60;99.90;;;;;;5030864;28;20187;-48
2022/03/24 07:23:33;;;;;;;42.53;24.02;;;8.80;99.90;;;;;;5030869;28;20214;-48
2022/03/24 07:25:58;;;;;;;45.05;23.58;;;8.90;99.90;;;;;;5030693;28;20171;-46
2022/03/24 07:28:24;;;;;;;44.75;25.17;;;9.00;99.90;;;;;;5032368;28;20172;-46
2022/03/24 07:30:50;;;;;;;41.30;24.80;;;9.10;99.90;;;;;;5031953;28;20237;-46
2022/03/24 07:33:18;;;;;;;42.67;25.67;;;9.20;99.90;;;;;;5032289;28;20167;-46
2022/03/24 07:35:45;;;;;;;42.67;24.75;;;9.20;99.90;;;;;;5031158;28;20221;-46
2022/03/24 07:38:10;;;;;;;39.90;26.05;;;9.30;99.90;;;;;;5032261;28;20183;-46
2022/03/24 07:40:36;;;;;;;38.83;25.13;;;9.40;99.90;;;;;;5031975;28;20163;-45
2022/03/24 07:43:01;;;;;;;39.97;23.70;;;9.40;99.90;;;;;;5031936;28;20175;-47
2022/03/24 07:45:27;;;;;;;40.28;24.77;;;9.50;99.90;;;;;;5031889;28;20635;-47
2022/03/24 07:48:09;;;;;;;44.78;25.45;;;9.50;99.90;;;;;;5031971;28;20703;-47
2022/03/24 07:50:38;;;;;;;37.17;24.60;;;9.70;99.90;;;;;;5031686;28;20510;-48
2022/03/24 07:53:30;;;;;;;52.45;24.98;;;9.80;99.90;;;;;;5031877;28;20190;-46
2022/03/24 07:55:57;;;;;;;39.35;26.15;;;9.90;99.90;;;;;;5032071;28;20177;-48
2022/03/24 07:58:23;;;;;;;43.70;27.45;;;10.10;99.90;;;;;;5030819;28;20531;-47
2022/03/24 08:00:49;;;;;;;42.40;26.88;;;10.20;99.90;;;;;;5031837;28;20165;-46
2022/03/24 08:03:20;;;;;;;44.22;27.55;;;10.20;99.90;;;;;;5031623;28;20175;-46
2022/03/24 08:05:47;;;;;;;45.63;26.77;;;10.30;99.90;;;;;;5031668;28;20167;-46
2022/03/24 08:08:14;;;;;;;43.53;28.25;;;10.50;99.90;;;;;;5032009;28;20266;-46
2022/03/24 08:10:47;;;;;;;43.38;27.27;;;10.70;99.90;;;;;;5031897;28;20207;-45
2022/03/24 08:13:15;;;;;;;48.42;28.60;;;10.80;99.90;;;;;;5030437;28;20175;-47
2022/03/24 08:15:41;;;;;;;45.38;28.08;;;10.90;99.90;;;;;;5031871;28;20179;-46
2022/03/24 08:18:08;;;;;;;46.55;27.60;;;10.90;99.90;;;;;;5030500;28;20175;-46
2022/03/24 08:20:38;;;;;;;47.70;27.48;;;10.90;99.90;;;;;;5031715;28;20151;-47
2022/03/24 08:23:10;;;;;;;48.22;28.15;;;11.00;99.90;;;;;;5032227;28;20178;-46
2022/03/24 08:25:42;;;;;;;44.95;28.55;;;11.20;99.90;;;;;;5035396;28;20155;-46
2022/03/24 08:28:08;;;;;;;45.15;27.92;;;11.30;99.90;;;;;;5035617;28;20229;-46
2022/03/24 08:30:34;;;;;;;45.25;27.98;;;11.30;99.90;;;;;;5035158;28;20649;-46
2022/03/24 08:32:59;;;;;;;47.10;29.42;;;11.40;99.90;;;;;;5035314;28;20265;-46
2022/03/24 08:35:25;;;;;;;53.72;29.13;;;11.60;99.90;;;;;;5035214;28;20163;-46
2022/03/24 08:37:51;;;;;;;45.10;29.63;;;11.70;99.90;;;;;;5035508;28;20512;-46
2022/03/24 08:40:17;;;;;;;48.47;29.20;;;11.80;99.90;;;;;;5035372;28;20175;-46
2022/03/24 08:42:43;;;;;;;44.55;26.75;;;12.00;99.90;;;;;;5035056;28;20523;-46
2022/03/24 08:45:11;;;;;;;43.67;28.27;;;12.00;99.90;;;;;;5035391;28;20167;-49
2022/03/24 08:47:37;;;;;;;46.28;30.55;;;12.00;99.90;;;;;;5034967;28;20223;-49
2022/03/24 08:50:05;;;;;;;44.22;28.92;;;12.20;99.90;;;;;;5034966;28;20179;-48
2022/03/24 08:52:31;;;;;;;46.00;30.08;;;12.20;99.90;;;;;;5035248;28;20172;-48
2022/03/24 08:54:57;;;;;;;40.13;27.77;;;12.30;99.90;;;;;;5034931;28;20175;-49
2022/03/24 08:57:26;;;;;;;47.47;29.17;;;12.40;99.90;;;;;;5035360;28;20202;-48
2022/03/24 08:59:56;;;;;;;48.70;28.20;;;12.50;99.90;;;;;;5035117;28;20194;-46
2022/03/24 09:02:22;;;;;;;41.90;28.23;;;12.60;99.90;;;;;;5035078;28;20171;-47
2022/03/24 09:04:48;;;;;;;43.38;28.27;;;12.70;99.90;;;;;;5034829;28;20167;-46
2022/03/24 09:07:14;;;;;;;44.00;27.52;;;12.80;99.90;;;;;;5033506;28;20726;-49
2022/03/24 09:09:40;;;;;;;43.35;28.63;;;12.90;99.90;;;;;;5034782;28;20180;-48
2022/03/24 09:12:06;;;;;;;42.13;28.55;;;13.20;99.90;;;;;;5034386;28;20211;-49
2022/03/24 09:14:32;;;;;;;46.80;29.67;;;13.30;99.90;;;;;;5034590;28;20168;-49
2022/03/24 09:16:57;;;;;;;49.55;29.25;;;13.40;99.90;;;;;;5034731;28;20163;-48
2022/03/24 09:19:23;;;;;;;48.35;28.63;;;13.40;99.90;;;;;;5034821;28;20171;-48
2022/03/24 09:21:49;;;;;;;47.22;29.40;;;13.50;99.90;;;;;;5034282;28;20252;-49
2022/03/24 09:24:14;;;;;;;44.65;29.02;;;13.60;99.90;;;;;;5034330;28;20178;-49
2022/03/24 09:26:40;;;;;;;45.50;29.77;;;13.70;99.90;;;;;;5034373;28;20163;-49
2022/03/24 09:29:05;;;;;;;43.50;26.98;;;13.70;99.90;;;;;;5034265;28;20167;-48
2022/03/24 09:31:31;;;;;;;41.35;30.15;;;13.80;99.90;;;;;;5034408;28;20219;-48
2022/03/24 09:33:56;;;;;;;46.28;29.85;;;13.90;99.90;;;;;;5033959;28;20250;-48
2022/03/24 09:36:22;;;;;;;48.20;30.33;;;13.90;99.90;;;;;;5034317;28;20175;-49
2022/03/24 09:38:47;;;;;;;40.80;28.30;;;14.10;99.90;;;;;;5032802;28;20171;-49
2022/03/24 09:41:14;;;;;;;47.83;29.42;;;14.30;99.90;;;;;;5034052;28;20190;-48
2022/03/24 09:43:41;;;;;;;39.95;26.90;;;14.30;99.90;;;;;;5034306;28;20179;-48
2022/03/24 09:46:08;;;;;;;39.13;29.42;;;14.30;99.90;;;;;;5033764;28;20648;-48
2022/03/24 09:48:34;;;;;;;46.92;30.95;;;14.50;99.90;;;;;;5034145;28;20186;-48
2022/03/24 09:50:59;;;;;;;51.08;29.98;;;14.70;99.90;;;;;;5033809;28;20674;-46
2022/03/24 09:53:25;;;;;;;42.90;29.58;;;14.90;99.90;;;;;;5033622;28;20164;-46
2022/03/24 09:55:50;;;;;;;47.33;29.63;;;15.10;99.90;;;;;;5034020;28;20739;-45
2022/03/24 09:58:16;;;;;;;51.72;29.10;;;15.20;99.90;;;;;;5033896;28;20626;-47
2022/03/24 10:00:42;;;;;;;45.95;30.20;;;15.20;99.90;;;;;;5033546;28;20168;-46
2022/03/24 10:03:10;;;;;;;46.55;30.85;;;15.30;99.90;;;;;;5033752;28;20542;-48
2022/03/24 10:05:36;;;;;;;45.72;30.05;;;15.30;99.90;;;;;;5033858;28;20171;-49
2022/03/24 10:08:08;;;;;;;47.45;29.65;;;15.50;99.90;;;;;;5033513;28;20182;-49
2022/03/24 10:10:36;;;;;;;49.72;30.33;;;15.60;99.90;;;;;;5033368;28;20194;-48
2022/03/24 10:13:02;;;;;;;49.38;30.42;;;15.70;99.90;;;;;;5033455;28;20225;-49
2022/03/24 10:15:29;;;;;;;47.55;29.02;;;15.80;99.90;;;;;;5032038;28;20623;-49
2022/03/24 10:18:00;;;;;;;43.80;30.42;;;15.90;99.90;;;;;;5033905;28;20182;-48
2022/03/24 10:20:30;;;;;;;42.65;29.25;;;16.00;99.90;;;;;;5033303;28;20171;-48
2022/03/24 10:22:58;;;;;;;38.63;27.13;;;16.20;99.90;;;;;;5033338;28;20664;-49
2022/03/24 10:25:26;;;;;;;42.67;28.85;;;16.30;99.90;;;;;;5033751;28;20522;-47
2022/03/24 10:28:24;;;;;;;36.88;27.52;;;16.30;99.90;;;;;;5033440;28;20208;-49
2022/03/24 10:31:02;;;;;;;39.22;28.63;;;16.30;98.10;;;;;;5025267;28;20219;-48
2022/03/24 10:33:38;;;;;;;43.35;27.88;;;16.50;97.40;;;;;;5033037;28;20666;-48
2022/03/24 10:36:13;;;;;;;43.85;28.25;;;16.50;95.60;;;;;;5033249;28;20222;-46
2022/03/24 10:38:41;;;;;;;44.90;28.02;;;16.60;94.00;;;;;;5033254;28;20175;-47
2022/03/24 10:41:17;;;;;;;42.65;27.88;;;16.70;93.60;;;;;;5033017;28;20171;-47
2022/03/24 10:43:44;;;;;;;44.20;25.65;;;16.70;91.90;;;;;;5032932;28;20704;-47
2022/03/24 10:46:14;;;;;;;39.22;26.27;;;16.80;91.70;;;;;;5030858;28;20214;-48
2022/03/24 10:48:40;;;;;;;34.72;23.65;;;16.80;89.10;;;;;;5033003;28;20203;-48
2022/03/24 10:51:06;;;;;;;36.45;23.52;;;16.80;84.30;;;;;;5032729;28;20237;-47
2022/03/24 10:53:39;;;;;;;39.33;23.50;;;16.70;83.00;;;;;;5032732;28;20175;-48
2022/03/24 10:56:25;;;;;;;34.40;23.33;;;16.90;86.50;;;;;;5032908;28;20175;-49
2022/03/24 10:58:57;;;;;;;33.20;25.08;;;17.10;86.10;;;;;;5032696;28;20172;-49
2022/03/24 11:01:27;;;;;;;40.33;25.60;;;17.10;85.40;;;;;;5032859;28;20594;-48
2022/03/24 11:03:53;;;;;;;39.40;27.85;;;17.30;85.70;;;;;;5032635;28;20213;-49
2022/03/24 11:06:22;;;;;;;42.80;27.88;;;17.00;83.90;;;;;;5032452;28;20171;-50
2022/03/24 11:08:59;;;;;;;37.65;25.40;;;17.30;85.60;;;;;;5031438;28;20174;-49
2022/03/24 11:11:26;;;;;;;39.28;26.70;;;17.30;81.20;;;;;;5032502;28;20210;-46
2022/03/24 11:13:54;;;;;;;39.92;26.85;;;17.20;84.20;;;;;;5032559;28;20266;-48
2022/03/24 11:16:28;;;;;;;39.33;23.50;;;17.40;83.20;;;;;;5031060;28;20517;-48
2022/03/24 11:18:56;;;;;;;38.35;23.42;;;17.50;81.00;;;;;;5032565;28;20627;-49
2022/03/24 11:21:49;;;;;;;38.58;23.33;;;17.50;79.70;;;;;;5032833;28;20186;-48
2022/03/24 11:24:14;;;;;;;44.72;29.77;;;17.70;79.80;;;;;;5030947;28;20174;-47
2022/03/24 11:26:40;;;;;;;36.13;24.83;;;17.80;81.50;;;;;;5032122;28;20163;-48
2022/03/24 11:29:06;;;;;;;31.70;20.85;;;17.90;80.90;;;;;;5032105;28;20612;-48
2022/03/24 11:31:32;;;;;;;31.42;20.98;;;17.90;77.20;;;;;;5032020;28;20242;-48
2022/03/24 11:34:01;;;;;;;36.88;24.73;;;17.80;73.90;;;;;;5032036;28;20168;-49
2022/03/24 11:36:28;;;;;;;33.47;23.38;;;17.60;76.40;;;;;;5032253;28;20250;-49
2022/03/24 11:38:56;;;;;;;34.85;22.20;;;17.60;75.70;;;;;;5032295;28;20173;-48
2022/03/24 11:41:34;;;;;;;33.92;21.67;;;17.80;73.90;;;;;;5032255;28;20543;-49
2022/03/24 11:44:09;;;;;;;30.17;20.60;;;17.80;74.70;;;;;;5032164;28;20171;-49
2022/03/24 11:46:40;;;;;;;37.22;23.38;;;17.90;76.40;;;;;;5031918;28;20231;-49
2022/03/24 11:49:25;;;;;;;30.40;22.65;;;18.00;77.10;;;;;;5031853;28;20251;-49
2022/03/24 11:52:10;;;;;;;31.92;21.08;;;18.20;76.60;;;;;;5032078;28;20260;-49
2022/03/24 11:54:38;;;;;;;30.85;21.30;;;18.30;75.30;;;;;;5031790;28;20249;-49
2022/03/24 11:57:27;;;;;;;27.92;15.55;;;18.20;76.00;;;;;;5032001;28;20177;-49
2022/03/24 12:00:14;;;;;;;33.40;17.35;;;18.20;75.20;;;;;;5036048;28;20171;-48
2022/03/24 12:02:44;;;;;;;24.63;15.48;;;18.30;73.10;;;;;;5035889;28;20634;-46
2022/03/24 12:05:11;;;;;;;23.00;12.02;;;18.40;72.90;;;;;;5035841;28;20178;-46
2022/03/24 12:07:37;;;;;;;21.55;13.77;;;18.20;67.50;;;;;;5035774;28;20159;-47
2022/03/24 12:10:04;;;;;;;23.00;15.35;;;18.20;68.40;;;;;;5035656;28;20198;-47
2022/03/24 12:12:30;;;;;;;23.55;15.82;;;18.30;68.20;;;;;;5035870;28;20260;-46
2022/03/24 12:14:58;;;;;;;23.08;15.90;;;18.30;67.70;;;;;;5035705;28;20334;-46
2022/03/24 12:17:30;;;;;;;28.60;18.35;;;18.30;66.50;;;;;;5035975;28;20217;-47
2022/03/24 12:20:00;;;;;;;31.65;17.85;;;18.30;66.50;;;;;;5034328;28;20174;-47
2022/03/24 12:22:26;;;;;;;25.50;18.20;;;18.50;67.30;;;;;;5035762;28;20181;-46
2022/03/24 12:24:53;;;;;;;22.40;14.23;;;18.60;67.40;;;;;;5035986;28;20175;-48
2022/03/24 12:27:18;;;;;;;21.50;13.80;;;18.60;64.20;;;;;;5035696;28;20600;-47
2022/03/24 12:30:09;;;;;;;20.95;14.25;;;18.30;60.90;;;;;;5035500;28;21265;-49
2022/03/24 12:32:35;;;;;;;24.75;15.30;;;18.30;62.10;;;;;;5035336;28;20179;-49
2022/03/24 12:35:02;;;;;;;20.70;13.02;;;18.30;62.90;;;;;;5035282;28;20241;-48
2022/03/24 12:37:32;;;;;;;22.33;13.68;;;18.50;65.70;;;;;;5035528;28;20180;-49